sensor_id;sensor_type;location;lat;lon;timestamp;pressure;altitude;pressure_sealevel;temperature;humidity
4590;BME280;2307;48.448;9.216;2024-03-08T00:02:35;95179.09;;;4.45;100.00
4590;BME280;2307;48.448;9.216;2024-03-08T00:05:03;95180.31;;;4.49;100.00
4590;BME280;2307;48.448;9.216;2024-03-08T00:07:29;95175.66;;;4.45;100.00
4590;BME280;2307;48.448;9.216;2024-03-08T00:09:55;95173.47;;;4.55;100.00
4590;BME280;2307;48.448;9.216;2024-03-08T00:12:22;95168.81;;;4.57;100.00
4590;BME280;2307;48.448;9.216;2024-03-08T00:14:48;95170.03;;;4.61;100.00
4590;BME280;2307;48.448;9.216;2024-03-08T00:17:15;95177.88;;;4.61;100.00
4590;BME280;2307;48.448;9.216;2024-03-08T00:19:43;95173.63;;;4.60;100.00
4590;BME280;2307;48.448;9.216;2024-03-08T00:22:09;95167.41;;;4.54;100.00
4590;BME280;2307;48.448;9.216;2024-03-08T00:24:36;95169.03;;;4.49;100.00
4590;BME280;2307;48.448;9.216;2024-03-08T00:27:03;95158.16;;;4.52;100.00
4590;BME280;2307;48.448;9.216;2024-03-08T00:29:29;95165.03;;;4.53;100.00
4590;BME280;2307;48.448;9.216;2024-03-08T00:31:56;95160.38;;;4.55;100.00
4590;BME280;2307;48.448;9.216;2024-03-08T00:34:23;95159.38;;;4.56;100.00
4590;BME280;2307;48.448;9.216;2024-03-08T00:36:51;95154.16;;;4.56;100.00
4590;BME280;2307;48.448;9.216;2024-03-08T00:39:18;95158.16;;;4.52;100.00
4590;BME280;2307;48.448;9.216;2024-03-08T00:41:44;95157.19;;;4.53;100.00
4590;BME280;2307;48.448;9.216;2024-03-08T00:44:11;95140.69;;;4.52;100.00
4590;BME280;2307;48.448;9.216;2024-03-08T00:46:37;95149.91;;;4.55;100.00
4590;BME280;2307;48.448;9.216;2024-03-08T00:49:04;95144.69;;;4.55;100.00
4590;BME280;2307;48.448;9.216;2024-03-08T00:51:31;95138.06;;;4.59;100.00
4590;BME280;2307;48.448;9.216;2024-03-08T00:53:59;95137.25;;;4.58;100.00
4590;BME280;2307;48.448;9.216;2024-03-08T00:56:25;95134.03;;;4.56;100.00
4590;BME280;2307;48.448;9.216;2024-03-08T00:58:52;95137.22;;;4.65;100.00
4590;BME280;2307;48.448;9.216;2024-03-08T01:01:19;95133.63;;;4.59;100.00
4590;BME280;2307;48.448;9.216;2024-03-08T01:03:45;95126.38;;;4.55;100.00
4590;BME280;2307;48.448;9.216;2024-03-08T01:06:11;95111.09;;;4.52;100.00
4590;BME280;2307;48.448;9.216;2024-03-08T01:08:38;95121.56;;;4.58;100.00
4590;BME280;2307;48.448;9.216;2024-03-08T01:11:08;95121.56;;;4.52;100.00
4590;BME280;2307;48.448;9.216;2024-03-08T01:13:36;95115.13;;;4.48;100.00
4590;BME280;2307;48.448;9.216;2024-03-08T01:16:03;95116.34;;;4.45;100.00
4590;BME280;2307;48.448;9.216;2024-03-08T01:18:29;95118.38;;;4.43;100.00
4590;BME280;2307;48.448;9.216;2024-03-08T01:20:55;95110.72;;;4.48;100.00
4590;BME280;2307;48.448;9.216;2024-03-08T01:23:22;95113.97;;;4.37;100.00
4590;BME280;2307;48.448;9.216;2024-03-08T01:25:49;95107.09;;;4.36;100.00
4590;BME280;2307;48.448;9.216;2024-03-08T01:28:23;95107.91;;;4.37;100.00
4590;BME280;2307;48.448;9.216;2024-03-08T01:30:49;95098.88;;;4.33;100.00
4590;BME280;2307;48.448;9.216;2024-03-08T01:33:20;95099.09;;;4.24;100.00
4590;BME280;2307;48.448;9.216;2024-03-08T01:35:47;95096.47;;;4.24;100.00
4590;BME280;2307;48.448;9.216;2024-03-08T01:38:14;95087.41;;;4.34;100.00
4590;BME280;2307;48.448;9.216;2024-03-08T01:40:40;95089.41;;;4.38;100.00
4590;BME280;2307;48.448;9.216;2024-03-08T01:43:19;95088.22;;;4.41;100.00
4590;BME280;2307;48.448;9.216;2024-03-08T01:45:47;95084.41;;;4.30;100.00
4590;BME280;2307;48.448;9.216;2024-03-08T01:48:14;95084.19;;;4.25;100.00
4590;BME280;2307;48.448;9.216;2024-03-08T01:50:41;95080.16;;;4.22;100.00
4590;BME280;2307;48.448;9.216;2024-03-08T01:53:07;95082.78;;;4.09;100.00
4590;BME280;2307;48.448;9.216;2024-03-08T01:55:35;95072.97;;;3.98;100.00
4590;BME280;2307;48.448;9.216;2024-03-08T01:58:02;95075.38;;;3.93;100.00
4590;BME280;2307;48.448;9.216;2024-03-08T02:00:29;95060.31;;;3.95;100.00
4590;BME280;2307;48.448;9.216;2024-03-08T02:02:57;95055.50;;;3.99;100.00
4590;BME280;2307;48.448;9.216;2024-03-08T02:05:24;95056.69;;;3.96;100.00
4590;BME280;2307;48.448;9.216;2024-03-08T02:07:50;95050.84;;;3.94;100.00
4590;BME280;2307;48.448;9.216;2024-03-08T02:10:16;95050.44;;;3.97;100.00
4590;BME280;2307;48.448;9.216;2024-03-08T02:12:43;95044.00;;;4.06;100.00
4590;BME280;2307;48.448;9.216;2024-03-08T02:15:09;95044.41;;;4.03;100.00
4590;BME280;2307;48.448;9.216;2024-03-08T02:17:36;95036.00;;;3.95;100.00
4590;BME280;2307;48.448;9.216;2024-03-08T02:20:04;95031.34;;;3.97;100.00
4590;BME280;2307;48.448;9.216;2024-03-08T02:22:32;95037.38;;;3.97;100.00
4590;BME280;2307;48.448;9.216;2024-03-08T02:24:59;95030.56;;;3.96;100.00
4590;BME280;2307;48.448;9.216;2024-03-08T02:27:29;95033.97;;;3.90;100.00
4590;BME280;2307;48.448;9.216;2024-03-08T02:29:56;95029.78;;;3.89;100.00
4590;BME280;2307;48.448;9.216;2024-03-08T02:32:23;95038.59;;;3.88;100.00
4590;BME280;2307;48.448;9.216;2024-03-08T02:34:49;95027.56;;;3.73;100.00
4590;BME280;2307;48.448;9.216;2024-03-08T02:37:16;95025.38;;;3.77;100.00
4590;BME280;2307;48.448;9.216;2024-03-08T02:39:44;95026.56;;;3.74;100.00
4590;BME280;2307;48.448;9.216;2024-03-08T02:42:10;95031.16;;;3.52;100.00
4590;BME280;2307;48.448;9.216;2024-03-08T02:44:37;95024.34;;;3.45;100.00
4590;BME280;2307;48.448;9.216;2024-03-08T02:47:04;95017.09;;;3.47;100.00
4590;BME280;2307;48.448;9.216;2024-03-08T02:49:31;95026.75;;;3.53;100.00
4590;BME280;2307;48.448;9.216;2024-03-08T02:51:57;95019.72;;;3.40;100.00
4590;BME280;2307;48.448;9.216;2024-03-08T02:54:23;95018.91;;;3.33;100.00
4590;BME280;2307;48.448;9.216;2024-03-08T02:56:51;95016.50;;;3.25;100.00
4590;BME280;2307;48.448;9.216;2024-03-08T02:59:17;95015.50;;;3.33;100.00
4590;BME280;2307;48.448;9.216;2024-03-08T03:01:44;95016.69;;;3.37;100.00
4590;BME280;2307;48.448;9.216;2024-03-08T03:04:10;95014.31;;;3.42;100.00
4590;BME280;2307;48.448;9.216;2024-03-08T03:06:37;95014.25;;;3.15;100.00
4590;BME280;2307;48.448;9.216;2024-03-08T03:09:03;95016.28;;;3.20;100.00
4590;BME280;2307;48.448;9.216;2024-03-08T03:11:31;95014.69;;;3.32;100.00
4590;BME280;2307;48.448;9.216;2024-03-08T03:13:59;95016.47;;;3.18;100.00
4590;BME280;2307;48.448;9.216;2024-03-08T03:16:25;95008.63;;;3.05;100.00
4590;BME280;2307;48.448;9.216;2024-03-08T03:18:51;95007.41;;;2.88;100.00
4590;BME280;2307;48.448;9.216;2024-03-08T03:21:18;95001.13;;;2.76;100.00
4590;BME280;2307;48.448;9.216;2024-03-08T03:23:44;95008.56;;;2.86;100.00
4590;BME280;2307;48.448;9.216;2024-03-08T03:26:11;95014.63;;;2.99;100.00
4590;BME280;2307;48.448;9.216;2024-03-08T03:28:37;94995.81;;;3.10;100.00
4590;BME280;2307;48.448;9.216;2024-03-08T03:31:05;95010.03;;;3.14;100.00
4590;BME280;2307;48.448;9.216;2024-03-08T03:33:32;95001.03;;;3.23;100.00
4590;BME280;2307;48.448;9.216;2024-03-08T03:35:59;95006.63;;;3.07;100.00
4590;BME280;2307;48.448;9.216;2024-03-08T03:38:26;94993.59;;;3.07;100.00
4590;BME280;2307;48.448;9.216;2024-03-08T03:40:53;94996.19;;;3.07;100.00
4590;BME280;2307;48.448;9.216;2024-03-08T03:43:22;94990.56;;;2.97;100.00
4590;BME280;2307;48.448;9.216;2024-03-08T03:45:48;94993.69;;;2.73;100.00
4590;BME280;2307;48.448;9.216;2024-03-08T03:48:17;94988.06;;;2.69;100.00
4590;BME280;2307;48.448;9.216;2024-03-08T03:50:43;94995.28;;;2.67;100.00
4590;BME280;2307;48.448;9.216;2024-03-08T03:53:10;94990.28;;;2.79;100.00
4590;BME280;2307;48.448;9.216;2024-03-08T03:55:36;94988.50;;;2.80;100.00
4590;BME280;2307;48.448;9.216;2024-03-08T03:58:03;94988.13;;;2.89;100.00
4590;BME280;2307;48.448;9.216;2024-03-08T04:00:30;94988.38;;;3.07;100.00
4590;BME280;2307;48.448;9.216;2024-03-08T04:02:57;94975.53;;;3.12;100.00
4590;BME280;2307;48.448;9.216;2024-03-08T04:05:27;94976.72;;;3.03;100.00
4590;BME280;2307;48.448;9.216;2024-03-08T04:07:53;94991.75;;;2.95;100.00
4590;BME280;2307;48.448;9.216;2024-03-08T04:10:19;94975.72;;;3.04;100.00
4590;BME280;2307;48.448;9.216;2024-03-08T04:12:46;94976.31;;;3.00;100.00
4590;BME280;2307;48.448;9.216;2024-03-08T04:15:12;94981.34;;;3.14;100.00
4590;BME280;2307;48.448;9.216;2024-03-08T04:17:38;94982.56;;;3.32;100.00
4590;BME280;2307;48.448;9.216;2024-03-08T04:20:05;94985.38;;;3.43;100.00
4590;BME280;2307;48.448;9.216;2024-03-08T04:22:37;94979.38;;;3.30;100.00
4590;BME280;2307;48.448;9.216;2024-03-08T04:25:04;94977.75;;;3.29;100.00
4590;BME280;2307;48.448;9.216;2024-03-08T04:27:31;94983.38;;;3.39;100.00
4590;BME280;2307;48.448;9.216;2024-03-08T04:29:58;94980.38;;;3.42;100.00
4590;BME280;2307;48.448;9.216;2024-03-08T04:32:24;94978.19;;;3.52;100.00
4590;BME280;2307;48.448;9.216;2024-03-08T04:34:50;94977.94;;;3.47;100.00
4590;BME280;2307;48.448;9.216;2024-03-08T04:37:17;94975.75;;;3.63;100.00
4590;BME280;2307;48.448;9.216;2024-03-08T04:39:47;94975.34;;;3.60;100.00
4590;BME280;2307;48.448;9.216;2024-03-08T04:42:14;94972.16;;;3.58;100.00
4590;BME280;2307;48.448;9.216;2024-03-08T04:44:43;94971.53;;;3.43;100.00
4590;BME280;2307;48.448;9.216;2024-03-08T04:47:09;94980.16;;;3.50;100.00
4590;BME280;2307;48.448;9.216;2024-03-08T04:49:36;94968.50;;;3.59;100.00
4590;BME280;2307;48.448;9.216;2024-03-08T04:52:02;94965.91;;;3.59;100.00
4590;BME280;2307;48.448;9.216;2024-03-08T04:54:29;94970.94;;;3.60;100.00
4590;BME280;2307;48.448;9.216;2024-03-08T04:56:56;94969.31;;;3.66;100.00
4590;BME280;2307;48.448;9.216;2024-03-08T04:59:25;94967.69;;;3.65;100.00
4590;BME280;2307;48.448;9.216;2024-03-08T05:01:51;94956.47;;;3.71;100.00
4590;BME280;2307;48.448;9.216;2024-03-08T05:04:17;94959.44;;;3.81;100.00
4590;BME280;2307;48.448;9.216;2024-03-08T05:06:44;94962.66;;;3.83;100.00
4590;BME280;2307;48.448;9.216;2024-03-08T05:09:10;94962.88;;;3.75;100.00
4590;BME280;2307;48.448;9.216;2024-03-08T05:11:40;94955.25;;;3.73;100.00
4590;BME280;2307;48.448;9.216;2024-03-08T05:14:07;94950.03;;;3.73;100.00
4590;BME280;2307;48.448;9.216;2024-03-08T05:16:34;94946.41;;;3.68;100.00
4590;BME280;2307;48.448;9.216;2024-03-08T05:19:00;94951.25;;;3.32;100.00
4590;BME280;2307;48.448;9.216;2024-03-08T05:21:27;94940.63;;;3.27;100.00
4590;BME280;2307;48.448;9.216;2024-03-08T05:23:54;94949.22;;;3.20;100.00
4590;BME280;2307;48.448;9.216;2024-03-08T05:26:20;94954.06;;;3.10;100.00
4590;BME280;2307;48.448;9.216;2024-03-08T05:28:47;94960.88;;;3.25;100.00
4590;BME280;2307;48.448;9.216;2024-03-08T05:31:18;94950.66;;;3.30;100.00
4590;BME280;2307;48.448;9.216;2024-03-08T05:33:45;94952.06;;;3.52;100.00
4590;BME280;2307;48.448;9.216;2024-03-08T05:36:12;94958.06;;;3.59;100.00
4590;BME280;2307;48.448;9.216;2024-03-08T05:38:40;94951.25;;;3.58;100.00
4590;BME280;2307;48.448;9.216;2024-03-08T05:41:08;94947.66;;;3.39;100.00
4590;BME280;2307;48.448;9.216;2024-03-08T05:43:34;94946.44;;;3.35;100.00
4590;BME280;2307;48.448;9.216;2024-03-08T05:46:01;94948.44;;;3.40;100.00
4590;BME280;2307;48.448;9.216;2024-03-08T05:48:31;94949.47;;;3.39;100.00
4590;BME280;2307;48.448;9.216;2024-03-08T05:50:58;94949.66;;;3.31;100.00
4590;BME280;2307;48.448;9.216;2024-03-08T05:53:24;94954.47;;;3.47;100.00
4590;BME280;2307;48.448;9.216;2024-03-08T05:55:51;94962.09;;;3.55;100.00
4590;BME280;2307;48.448;9.216;2024-03-08T05:58:18;94954.47;;;3.60;100.00
4590;BME280;2307;48.448;9.216;2024-03-08T06:00:44;94956.88;;;3.55;100.00
4590;BME280;2307;48.448;9.216;2024-03-08T06:03:11;94963.28;;;3.65;100.00
4590;BME280;2307;48.448;9.216;2024-03-08T06:05:39;94953.03;;;3.77;100.00
4590;BME280;2307;48.448;9.216;2024-03-08T06:08:07;94953.66;;;3.66;100.00
4590;BME280;2307;48.448;9.216;2024-03-08T06:10:33;94960.50;;;3.47;100.00
4590;BME280;2307;48.448;9.216;2024-03-08T06:12:59;94947.03;;;3.44;100.00
4590;BME280;2307;48.448;9.216;2024-03-08T06:15:26;94948.25;;;3.48;100.00
4590;BME280;2307;48.448;9.216;2024-03-08T06:17:53;94945.22;;;3.57;100.00
4590;BME280;2307;48.448;9.216;2024-03-08T06:20:19;94948.81;;;3.63;100.00
4590;BME280;2307;48.448;9.216;2024-03-08T06:22:47;94941.78;;;3.70;100.00
4590;BME280;2307;48.448;9.216;2024-03-08T06:25:13;94934.97;;;3.62;100.00
4590;BME280;2307;48.448;9.216;2024-03-08T06:27:40;94941.22;;;3.29;100.00
4590;BME280;2307;48.448;9.216;2024-03-08T06:30:07;94949.25;;;3.47;100.00
4590;BME280;2307;48.448;9.216;2024-03-08T06:32:34;94946.03;;;3.51;100.00
4590;BME280;2307;48.448;9.216;2024-03-08T06:35:01;94949.66;;;3.57;100.00
4590;BME280;2307;48.448;9.216;2024-03-08T06:37:27;94959.28;;;3.50;100.00
4590;BME280;2307;48.448;9.216;2024-03-08T06:39:55;94951.66;;;3.48;100.00
4590;BME280;2307;48.448;9.216;2024-03-08T06:42:21;94960.31;;;3.42;100.00
4590;BME280;2307;48.448;9.216;2024-03-08T06:44:48;94962.50;;;3.39;100.00
4590;BME280;2307;48.448;9.216;2024-03-08T06:47:15;94959.50;;;3.29;100.00
4590;BME280;2307;48.448;9.216;2024-03-08T06:49:41;94954.28;;;3.22;100.00
4590;BME280;2307;48.448;9.216;2024-03-08T06:52:07;94952.88;;;3.19;100.00
4590;BME280;2307;48.448;9.216;2024-03-08T06:54:34;94958.91;;;3.27;100.00
4590;BME280;2307;48.448;9.216;2024-03-08T06:57:02;94951.66;;;3.29;100.00
4590;BME280;2307;48.448;9.216;2024-03-08T06:59:29;94953.25;;;3.43;100.00
4590;BME280;2307;48.448;9.216;2024-03-08T07:01:55;94944.00;;;3.60;100.00
4590;BME280;2307;48.448;9.216;2024-03-08T07:04:21;94944.41;;;3.57;100.00
4590;BME280;2307;48.448;9.216;2024-03-08T07:06:51;94942.63;;;3.57;100.00
4590;BME280;2307;48.448;9.216;2024-03-08T07:09:18;94944.00;;;3.66;100.00
4590;BME280;2307;48.448;9.216;2024-03-08T07:11:44;94958.47;;;3.75;100.00
4590;BME280;2307;48.448;9.216;2024-03-08T07:14:13;94950.59;;;3.82;100.00
4590;BME280;2307;48.448;9.216;2024-03-08T07:16:40;94945.81;;;3.59;100.00
4590;BME280;2307;48.448;9.216;2024-03-08T07:19:06;94941.59;;;3.65;100.00
4590;BME280;2307;48.448;9.216;2024-03-08T07:21:33;94941.56;;;3.78;100.00
4590;BME280;2307;48.448;9.216;2024-03-08T07:23:59;94942.38;;;3.85;100.00
4590;BME280;2307;48.448;9.216;2024-03-08T07:26:49;94945.22;;;3.70;100.00
4590;BME280;2307;48.448;9.216;2024-03-08T07:29:18;94938.56;;;3.68;100.00
4590;BME280;2307;48.448;9.216;2024-03-08T07:31:45;94942.41;;;3.59;100.00
4590;BME280;2307;48.448;9.216;2024-03-08T07:34:20;94942.78;;;3.82;100.00
4590;BME280;2307;48.448;9.216;2024-03-08T07:36:46;94940.72;;;3.97;100.00
4590;BME280;2307;48.448;9.216;2024-03-08T07:39:15;94936.06;;;4.12;100.00
4590;BME280;2307;48.448;9.216;2024-03-08T07:41:42;94934.22;;;4.19;100.00
4590;BME280;2307;48.448;9.216;2024-03-08T07:44:08;94931.03;;;4.17;100.00
4590;BME280;2307;48.448;9.216;2024-03-08T07:46:36;94933.31;;;3.81;100.00
4590;BME280;2307;48.448;9.216;2024-03-08T07:49:03;94927.91;;;3.83;100.00
4590;BME280;2307;48.448;9.216;2024-03-08T07:51:29;94921.47;;;3.79;100.00
4590;BME280;2307;48.448;9.216;2024-03-08T07:53:56;94925.50;;;3.74;100.00
4590;BME280;2307;48.448;9.216;2024-03-08T07:56:23;94922.69;;;3.89;100.00
4590;BME280;2307;48.448;9.216;2024-03-08T07:58:50;94925.84;;;4.04;100.00
4590;BME280;2307;48.448;9.216;2024-03-08T08:01:18;94912.63;;;3.86;100.00
4590;BME280;2307;48.448;9.216;2024-03-08T08:03:46;94912.22;;;3.89;100.00
4590;BME280;2307;48.448;9.216;2024-03-08T08:06:14;94914.44;;;3.86;100.00
4590;BME280;2307;48.448;9.216;2024-03-08T08:08:41;94919.91;;;3.64;100.00
4590;BME280;2307;48.448;9.216;2024-03-08T08:11:07;94914.06;;;3.75;100.00
4590;BME280;2307;48.448;9.216;2024-03-08T08:13:34;94915.44;;;3.91;100.00
4590;BME280;2307;48.448;9.216;2024-03-08T08:16:01;94918.59;;;4.06;100.00
4590;BME280;2307;48.448;9.216;2024-03-08T08:18:28;94913.31;;;4.19;100.00
4590;BME280;2307;48.448;9.216;2024-03-08T08:20:56;94909.72;;;4.20;100.00
4590;BME280;2307;48.448;9.216;2024-03-08T08:23:22;94913.72;;;4.23;100.00
4590;BME280;2307;48.448;9.216;2024-03-08T08:25:48;94905.84;;;4.29;100.00
4590;BME280;2307;48.448;9.216;2024-03-08T08:28:15;94906.44;;;4.32;100.00
4590;BME280;2307;48.448;9.216;2024-03-08T08:30:42;94909.00;;;4.45;100.00
4590;BME280;2307;48.448;9.216;2024-03-08T08:33:09;94904.00;;;4.37;100.00
4590;BME280;2307;48.448;9.216;2024-03-08T08:35:35;94904.16;;;4.48;100.00
4590;BME280;2307;48.448;9.216;2024-03-08T08:38:03;94907.69;;;4.60;100.00
4590;BME280;2307;48.448;9.216;2024-03-08T08:40:30;94903.44;;;4.72;100.00
4590;BME280;2307;48.448;9.216;2024-03-08T08:42:57;94898.19;;;4.72;100.00
4590;BME280;2307;48.448;9.216;2024-03-08T08:45:23;94907.00;;;4.78;100.00
4590;BME280;2307;48.448;9.216;2024-03-08T08:47:50;94889.28;;;4.80;100.00
4590;BME280;2307;48.448;9.216;2024-03-08T08:50:16;94892.47;;;4.82;100.00
4590;BME280;2307;48.448;9.216;2024-03-08T08:52:48;94897.94;;;4.80;100.00
4590;BME280;2307;48.448;9.216;2024-03-08T08:55:15;94893.69;;;4.79;100.00
4590;BME280;2307;48.448;9.216;2024-03-08T08:57:46;94893.66;;;4.86;100.00
4590;BME280;2307;48.448;9.216;2024-03-08T09:00:12;94893.56;;;4.99;100.00
4590;BME280;2307;48.448;9.216;2024-03-08T09:02:40;94889.19;;;4.93;100.00
4590;BME280;2307;48.448;9.216;2024-03-08T09:05:07;94893.47;;;5.12;100.00
4590;BME280;2307;48.448;9.216;2024-03-08T09:07:34;94890.91;;;5.30;100.00
4590;BME280;2307;48.448;9.216;2024-03-08T09:10:00;94883.97;;;5.18;100.00
4590;BME280;2307;48.448;9.216;2024-03-08T09:12:28;94887.16;;;4.95;100.00
4590;BME280;2307;48.448;9.216;2024-03-08T09:14:56;94885.19;;;4.91;100.00
4590;BME280;2307;48.448;9.216;2024-03-08T09:17:23;94889.44;;;5.16;100.00
4590;BME280;2307;48.448;9.216;2024-03-08T09:19:49;94876.16;;;5.11;100.00
4590;BME280;2307;48.448;9.216;2024-03-08T09:22:16;94884.91;;;5.23;100.00
4590;BME280;2307;48.448;9.216;2024-03-08T09:24:43;94880.53;;;5.17;100.00
4590;BME280;2307;48.448;9.216;2024-03-08T09:27:10;94870.44;;;5.21;100.00
4590;BME280;2307;48.448;9.216;2024-03-08T09:29:38;94873.91;;;5.40;100.00
4590;BME280;2307;48.448;9.216;2024-03-08T09:32:05;94868.59;;;5.03;100.00
4590;BME280;2307;48.448;9.216;2024-03-08T09:34:32;94878.06;;;5.29;100.00
4590;BME280;2307;48.448;9.216;2024-03-08T09:36:58;94867.94;;;5.32;100.00
4590;BME280;2307;48.448;9.216;2024-03-08T09:39:25;94864.34;;;5.52;100.00
4590;BME280;2307;48.448;9.216;2024-03-08T09:41:52;94872.16;;;5.76;100.00
4590;BME280;2307;48.448;9.216;2024-03-08T09:44:20;94867.88;;;5.82;100.00
4590;BME280;2307;48.448;9.216;2024-03-08T09:46:48;94869.91;;;5.80;100.00
4590;BME280;2307;48.448;9.216;2024-03-08T09:49:16;94870.53;;;5.75;100.00
4590;BME280;2307;48.448;9.216;2024-03-08T09:51:42;94864.94;;;5.54;100.00
4590;BME280;2307;48.448;9.216;2024-03-08T09:54:09;94858.53;;;5.68;100.00
4590;BME280;2307;48.448;9.216;2024-03-08T09:56:36;94864.56;;;5.68;100.00
4590;BME280;2307;48.448;9.216;2024-03-08T09:59:03;94862.31;;;5.54;100.00
4590;BME280;2307;48.448;9.216;2024-03-08T10:02:00;94856.06;;;5.55;100.00
4590;BME280;2307;48.448;9.216;2024-03-08T10:04:28;94857.00;;;5.60;100.00
4590;BME280;2307;48.448;9.216;2024-03-08T10:06:57;94857.44;;;5.75;100.00
4590;BME280;2307;48.448;9.216;2024-03-08T10:09:24;94848.34;;;5.78;100.00
4590;BME280;2307;48.448;9.216;2024-03-08T10:11:53;94852.94;;;5.82;100.00
4590;BME280;2307;48.448;9.216;2024-03-08T10:14:19;94843.97;;;5.54;100.00
4590;BME280;2307;48.448;9.216;2024-03-08T10:16:46;94842.38;;;5.53;100.00
4590;BME280;2307;48.448;9.216;2024-03-08T10:19:14;94844.84;;;5.66;100.00
4590;BME280;2307;48.448;9.216;2024-03-08T10:21:47;94846.34;;;5.98;100.00
4590;BME280;2307;48.448;9.216;2024-03-08T10:24:14;94847.13;;;6.17;100.00
4590;BME280;2307;48.448;9.216;2024-03-08T10:26:40;94843.50;;;6.18;100.00
4590;BME280;2307;48.448;9.216;2024-03-08T10:29:08;94840.44;;;6.21;100.00
4590;BME280;2307;48.448;9.216;2024-03-08T10:31:35;94841.34;;;6.26;100.00
4590;BME280;2307;48.448;9.216;2024-03-08T10:34:01;94830.41;;;6.29;100.00
4590;BME280;2307;48.448;9.216;2024-03-08T10:36:29;94836.88;;;6.45;100.00
4590;BME280;2307;48.448;9.216;2024-03-08T10:38:57;94826.66;;;6.55;100.00
4590;BME280;2307;48.448;9.216;2024-03-08T10:41:27;94821.88;;;6.64;100.00
4590;BME280;2307;48.448;9.216;2024-03-08T10:44:01;94813.09;;;6.70;100.00
4590;BME280;2307;48.448;9.216;2024-03-08T10:46:36;94808.00;;;6.75;100.00
4590;BME280;2307;48.448;9.216;2024-03-08T10:49:08;94808.34;;;6.90;100.00
4590;BME280;2307;48.448;9.216;2024-03-08T10:51:38;94805.16;;;6.88;100.00
4590;BME280;2307;48.448;9.216;2024-03-08T10:54:06;94804.38;;;7.11;100.00
4590;BME280;2307;48.448;9.216;2024-03-08T10:56:34;94803.16;;;7.13;100.00
4590;BME280;2307;48.448;9.216;2024-03-08T10:59:01;94812.25;;;6.99;100.00
4590;BME280;2307;48.448;9.216;2024-03-08T11:01:29;94807.00;;;6.99;100.00
4590;BME280;2307;48.448;9.216;2024-03-08T11:03:55;94799.13;;;7.11;100.00
4590;BME280;2307;48.448;9.216;2024-03-08T11:06:22;94795.25;;;7.25;100.00
4590;BME280;2307;48.448;9.216;2024-03-08T11:08:51;94801.56;;;7.35;100.00
4590;BME280;2307;48.448;9.216;2024-03-08T11:11:23;94789.19;;;7.24;100.00
4590;BME280;2307;48.448;9.216;2024-03-08T11:13:52;94788.41;;;7.12;100.00
4590;BME280;2307;48.448;9.216;2024-03-08T11:19:01;94779.03;;;7.28;100.00
4590;BME280;2307;48.448;9.216;2024-03-08T11:21:33;94777.06;;;7.58;100.00
4590;BME280;2307;48.448;9.216;2024-03-08T11:24:00;94778.84;;;7.81;100.00
4590;BME280;2307;48.448;9.216;2024-03-08T11:26:28;94776.72;;;8.06;100.00
4590;BME280;2307;48.448;9.216;2024-03-08T11:28:56;94779.75;;;8.26;100.00
4590;BME280;2307;48.448;9.216;2024-03-08T11:31:42;94782.47;;;8.31;98.81
4590;BME280;2307;48.448;9.216;2024-03-08T11:34:14;94775.63;;;8.59;99.73
4590;BME280;2307;48.448;9.216;2024-03-08T11:36:41;94773.38;;;8.67;100.00
4590;BME280;2307;48.448;9.216;2024-03-08T11:39:09;94774.44;;;8.83;98.43
4590;BME280;2307;48.448;9.216;2024-03-08T11:41:39;94772.53;;;8.78;98.24
4590;BME280;2307;48.448;9.216;2024-03-08T11:44:06;94768.53;;;8.76;100.00
4590;BME280;2307;48.448;9.216;2024-03-08T11:46:34;94773.47;;;8.89;100.00
4590;BME280;2307;48.448;9.216;2024-03-08T11:49:01;94768.44;;;9.04;99.18
4590;BME280;2307;48.448;9.216;2024-03-08T11:51:28;94761.28;;;9.16;94.81
4590;BME280;2307;48.448;9.216;2024-03-08T11:53:55;94755.47;;;9.36;94.87
4590;BME280;2307;48.448;9.216;2024-03-08T11:56:23;94755.09;;;9.27;91.71
4590;BME280;2307;48.448;9.216;2024-03-08T11:58:52;94752.13;;;9.40;91.34
4590;BME280;2307;48.448;9.216;2024-03-08T12:01:19;94753.44;;;9.21;91.87
4590;BME280;2307;48.448;9.216;2024-03-08T12:03:45;94747.34;;;9.37;93.95
4590;BME280;2307;48.448;9.216;2024-03-08T12:06:18;94744.09;;;9.52;91.33
4590;BME280;2307;48.448;9.216;2024-03-08T12:08:45;94743.03;;;9.70;88.77
4590;BME280;2307;48.448;9.216;2024-03-08T12:11:14;94732.84;;;9.78;88.04
4590;BME280;2307;48.448;9.216;2024-03-08T12:13:42;94728.69;;;9.82;84.34
4590;BME280;2307;48.448;9.216;2024-03-08T12:16:11;94731.38;;;9.87;83.95
4590;BME280;2307;48.448;9.216;2024-03-08T12:18:38;94731.03;;;10.05;85.51
4590;BME280;2307;48.448;9.216;2024-03-08T12:21:05;94724.69;;;10.23;80.12
4590;BME280;2307;48.448;9.216;2024-03-08T12:23:33;94722.56;;;10.25;74.99
4590;BME280;2307;48.448;9.216;2024-03-08T12:26:08;94720.50;;;10.27;75.19
4590;BME280;2307;48.448;9.216;2024-03-08T12:28:38;94719.94;;;10.25;75.28
4590;BME280;2307;48.448;9.216;2024-03-08T12:31:06;94714.44;;;10.27;75.01
4590;BME280;2307;48.448;9.216;2024-03-08T12:33:35;94713.94;;;10.30;77.34
4590;BME280;2307;48.448;9.216;2024-03-08T12:36:02;94715.13;;;10.17;75.70
4590;BME280;2307;48.448;9.216;2024-03-08T12:38:32;94705.25;;;10.12;75.01
4590;BME280;2307;48.448;9.216;2024-03-08T12:41:00;94703.31;;;10.03;74.61
4590;BME280;2307;48.448;9.216;2024-03-08T12:43:27;94698.16;;;10.13;73.80
4590;BME280;2307;48.448;9.216;2024-03-08T12:45:55;94691.47;;;10.27;73.76
4590;BME280;2307;48.448;9.216;2024-03-08T12:48:23;94682.88;;;10.42;73.59
4590;BME280;2307;48.448;9.216;2024-03-08T12:50:50;94687.50;;;10.56;73.00
4590;BME280;2307;48.448;9.216;2024-03-08T12:53:17;94682.09;;;10.73;71.76
4590;BME280;2307;48.448;9.216;2024-03-08T12:55:43;94684.53;;;10.85;68.48
4590;BME280;2307;48.448;9.216;2024-03-08T12:58:10;94675.03;;;10.84;68.09
4590;BME280;2307;48.448;9.216;2024-03-08T13:00:36;94675.16;;;10.99;67.53
4590;BME280;2307;48.448;9.216;2024-03-08T13:03:08;94659.88;;;11.06;68.82
4590;BME280;2307;48.448;9.216;2024-03-08T13:05:37;94659.13;;;11.15;71.43
4590;BME280;2307;48.448;9.216;2024-03-08T13:08:05;94660.75;;;11.27;71.53
4590;BME280;2307;48.448;9.216;2024-03-08T13:10:37;94649.09;;;11.17;70.00
4590;BME280;2307;48.448;9.216;2024-03-08T13:13:03;94644.38;;;11.25;69.23
4590;BME280;2307;48.448;9.216;2024-03-08T13:15:30;94638.81;;;11.26;68.18
4590;BME280;2307;48.448;9.216;2024-03-08T13:17:56;94636.72;;;11.28;67.51
4590;BME280;2307;48.448;9.216;2024-03-08T13:20:25;94639.94;;;11.35;64.07
4590;BME280;2307;48.448;9.216;2024-03-08T13:22:54;94630.44;;;11.39;65.18
4590;BME280;2307;48.448;9.216;2024-03-08T13:25:21;94629.31;;;11.25;65.10
4590;BME280;2307;48.448;9.216;2024-03-08T13:27:49;94630.97;;;11.41;65.08